createdAt,value
2023-01-03T00:01:42.530Z,21.98
2023-01-03T00:04:10.234Z,20.23
2023-01-03T00:06:46.078Z,18.75
2023-01-03T00:09:17.134Z,18.05
2023-01-03T00:12:06.460Z,22.17
2023-01-03T00:14:37.487Z,26.65
2023-01-03T00:17:06.917Z,21.02
2023-01-03T00:19:38.214Z,24.73
2023-01-03T00:22:05.430Z,20.17
2023-01-03T00:24:32.650Z,20.50
2023-01-03T00:26:59.904Z,23.25
2023-01-03T00:29:27.278Z,21.73
2023-01-03T00:31:54.269Z,25.05
2023-01-03T00:34:21.303Z,24.33
2023-01-03T00:36:48.359Z,24.60
2023-01-03T00:39:15.384Z,21.30
2023-01-03T00:41:42.669Z,25.30
2023-01-03T00:44:10.016Z,24.85
2023-01-03T00:46:37.483Z,24.65
2023-01-03T00:49:05.678Z,28.05
2023-01-03T00:51:38.276Z,30.77
2023-01-03T00:54:06.783Z,24.33
2023-01-03T00:56:40.517Z,22.65
2023-01-03T00:59:08.212Z,25.92
2023-01-03T01:01:46.578Z,24.77
2023-01-03T01:04:24.919Z,27.45
2023-01-03T01:06:59.471Z,26.23
2023-01-03T01:09:36.539Z,26.58
2023-01-03T01:12:05.917Z,28.30
2023-01-03T01:14:33.828Z,26.95
2023-01-03T01:17:05.485Z,26.63
2023-01-03T01:19:39.631Z,23.73
2023-01-03T01:22:07.357Z,28.25
2023-01-03T01:24:34.840Z,29.00
2023-01-03T01:27:01.926Z,29.13
2023-01-03T01:29:28.781Z,25.95
2023-01-03T01:31:55.733Z,26.13
2023-01-03T01:34:23.677Z,27.05
2023-01-03T01:36:50.533Z,27.75
2023-01-03T01:39:21.745Z,35.75
2023-01-03T01:42:13.674Z,33.42
2023-01-03T01:45:18.753Z,26.30
2023-01-03T01:47:57.531Z,27.60
2023-01-03T01:50:52.864Z,23.20
2023-01-03T01:53:29.470Z,22.40
2023-01-03T01:56:24.026Z,23.80
2023-01-03T01:58:53.136Z,22.77
2023-01-03T02:01:22.858Z,22.95
2023-01-03T02:04:02.287Z,21.30
2023-01-03T02:06:32.303Z,19.35
2023-01-03T02:08:59.438Z,19.55
2023-01-03T02:11:41.229Z,23.27
2023-01-03T02:14:59.588Z,13.77
2023-01-03T02:18:08.615Z,16.98
2023-01-03T02:21:19.628Z,12.98
2023-01-03T02:24:26.620Z,14.45
2023-01-03T02:27:21.226Z,18.08
2023-01-03T02:30:30.565Z,11.85
2023-01-03T02:33:11.220Z,23.15
2023-01-03T02:35:58.373Z,15.57
2023-01-03T02:39:00.529Z,16.95
2023-01-03T02:41:42.579Z,16.00
2023-01-03T02:44:16.681Z,21.27
2023-01-03T02:47:03.302Z,16.13
2023-01-03T02:49:41.731Z,18.13
2023-01-03T02:52:15.338Z,19.70
2023-01-03T02:55:07.726Z,16.63
2023-01-03T02:57:50.588Z,15.68
2023-01-03T03:00:23.286Z,23.23
2023-01-03T03:02:57.559Z,20.27
2023-01-03T03:05:47.790Z,17.33
2023-01-03T03:08:14.718Z,18.67
2023-01-03T03:11:01.503Z,22.52
2023-01-03T03:13:38.995Z,21.98
2023-01-03T03:16:10.544Z,17.92
2023-01-03T03:18:51.316Z,16.95
2023-01-03T03:21:39.645Z,18.75
2023-01-03T03:24:39.040Z,22.45
2023-01-03T03:27:30.506Z,18.27
2023-01-03T03:30:00.434Z,15.55
2023-01-03T03:32:31.411Z,18.08
2023-01-03T03:35:02.421Z,17.60
2023-01-03T03:37:32.147Z,19.85
2023-01-03T03:40:17.367Z,19.17
2023-01-03T03:45:56.806Z,18.27
2023-01-03T03:48:30.695Z,20.63
2023-01-03T03:51:08.976Z,20.53
2023-01-03T03:53:39.830Z,25.30
2023-01-03T03:56:31.962Z,21.95
2023-01-03T03:59:07.012Z,20.67
2023-01-03T04:01:37.488Z,20.60
2023-01-03T04:04:14.245Z,21.02
2023-01-03T04:06:50.504Z,22.45
2023-01-03T04:09:18.433Z,22.73
2023-01-03T04:11:45.410Z,24.10
2023-01-03T04:14:12.547Z,22.05
2023-01-03T04:16:41.172Z,21.50
2023-01-03T04:19:08.680Z,26.60
2023-01-03T04:21:36.862Z,21.38
2023-01-03T04:24:07.387Z,23.80
2023-01-03T04:26:34.490Z,26.48
2023-01-03T04:29:01.308Z,26.77
2023-01-03T04:31:28.232Z,27.67
2023-01-03T04:33:55.068Z,28.85
2023-01-03T04:36:21.883Z,30.88
2023-01-03T04:38:49.097Z,27.27
2023-01-03T04:41:16.936Z,24.77
2023-01-03T04:44:01.878Z,24.45
2023-01-03T04:49:09.638Z,24.38
2023-01-03T04:51:36.993Z,38.55
2023-01-03T04:54:06.499Z,29.65
2023-01-03T04:56:36.327Z,27.88
2023-01-03T04:59:04.180Z,29.27
2023-01-03T05:01:31.151Z,28.73
2023-01-03T05:04:01.639Z,24.38
2023-01-03T05:06:29.312Z,35.60
2023-01-03T05:08:56.493Z,30.45
2023-01-03T05:11:23.857Z,31.20
2023-01-03T05:13:50.843Z,26.92
2023-01-03T05:16:18.019Z,32.92
2023-01-03T05:18:45.269Z,25.48
2023-01-03T05:21:37.617Z,34.00
2023-01-03T05:24:24.907Z,32.15
2023-01-03T05:26:53.254Z,25.33
2023-01-03T05:29:22.319Z,31.70
2023-01-03T05:31:50.170Z,31.67
2023-01-03T05:34:17.132Z,29.92
2023-01-03T05:36:44.060Z,28.80
2023-01-03T05:39:11.636Z,25.98
2023-01-03T05:41:57.012Z,30.55
2023-01-03T05:44:23.852Z,30.83
2023-01-03T05:46:51.015Z,25.55
2023-01-03T05:49:18.023Z,29.40
2023-01-03T05:51:44.888Z,30.08
2023-01-03T05:54:17.252Z,31.73
2023-01-03T05:56:44.511Z,31.70
2023-01-03T05:59:11.816Z,34.60
2023-01-03T06:01:39.176Z,34.22
2023-01-03T06:04:07.141Z,32.05
2023-01-03T06:06:34.160Z,26.15
2023-01-03T06:09:01.320Z,29.85
2023-01-03T06:11:28.271Z,30.35
2023-01-03T06:13:55.165Z,29.27
2023-01-03T06:16:40.950Z,29.20
2023-01-03T06:19:09.434Z,24.73
2023-01-03T06:21:37.078Z,29.15
2023-01-03T06:24:05.269Z,26.08
2023-01-03T06:26:32.252Z,25.52
2023-01-03T06:28:59.396Z,22.92
2023-01-03T06:31:26.570Z,29.63
2023-01-03T06:33:53.870Z,21.48
2023-01-03T06:36:22.909Z,21.75
2023-01-03T06:38:49.971Z,28.83
2023-01-03T06:41:17.566Z,23.85
2023-01-03T06:43:45.037Z,23.17
2023-01-03T06:46:31.843Z,26.80
2023-01-03T06:49:18.135Z,20.30
2023-01-03T06:52:06.921Z,23.25
2023-01-03T06:54:37.396Z,21.55
2023-01-03T06:57:04.980Z,23.65
2023-01-03T06:59:32.034Z,23.23
2023-01-03T07:01:59.030Z,22.60
2023-01-03T07:04:26.923Z,21.25
2023-01-03T07:06:54.132Z,28.27
2023-01-03T07:09:20.960Z,24.27
2023-01-03T07:11:48.123Z,26.20
2023-01-03T07:14:14.973Z,29.00
2023-01-03T07:16:46.047Z,29.92
2023-01-03T07:19:17.936Z,20.63
2023-01-03T07:21:45.478Z,26.58
2023-01-03T07:24:15.975Z,23.08
2023-01-03T07:26:42.882Z,17.65
2023-01-03T07:29:10.719Z,26.63
2023-01-03T07:31:41.646Z,21.17
2023-01-03T07:34:09.687Z,19.10
2023-01-03T07:36:37.477Z,21.98
2023-01-03T07:39:04.575Z,21.70
2023-01-03T07:41:50.491Z,23.63
2023-01-03T07:44:17.260Z,20.98
2023-01-03T07:46:44.360Z,20.63
2023-01-03T07:49:12.597Z,20.88
2023-01-03T07:51:39.961Z,20.35
2023-01-03T07:54:08.014Z,16.00
2023-01-03T07:56:35.392Z,15.45
2023-01-03T07:59:02.336Z,22.45
2023-01-03T08:01:30.650Z,19.27
2023-01-03T08:04:00.127Z,15.40
2023-01-03T08:06:27.029Z,19.15
2023-01-03T08:09:12.902Z,19.67
2023-01-03T08:11:58.535Z,19.25
2023-01-03T08:14:27.052Z,21.35
2023-01-03T08:16:55.615Z,18.35
2023-01-03T08:19:24.184Z,17.85
2023-01-03T08:21:51.336Z,17.25
2023-01-03T08:24:18.200Z,20.50
2023-01-03T08:26:45.393Z,17.17
2023-01-03T08:29:12.240Z,13.32
2023-01-03T08:31:45.254Z,23.23
2023-01-03T08:34:18.411Z,19.63
2023-01-03T08:36:53.075Z,27.08
2023-01-03T08:39:30.871Z,22.15
2023-01-03T08:42:04.149Z,17.33
2023-01-03T08:44:31.218Z,23.33
2023-01-03T08:47:01.714Z,20.00
2023-01-03T08:49:30.230Z,24.05
2023-01-03T08:51:57.448Z,19.27
2023-01-03T08:54:24.228Z,23.75
2023-01-03T08:56:51.074Z,32.25
2023-01-03T08:59:18.113Z,23.20
2023-01-03T09:01:45.104Z,25.25
2023-01-03T09:04:12.334Z,27.30
2023-01-03T09:06:39.182Z,28.85
2023-01-03T09:09:08.606Z,25.85
2023-01-03T09:11:35.750Z,28.67
2023-01-03T09:14:02.550Z,24.77
2023-01-03T09:16:29.847Z,21.75
2023-01-03T09:18:56.795Z,18.35
2023-01-03T09:21:24.262Z,27.00
2023-01-03T09:23:51.821Z,27.70
2023-01-03T09:26:18.623Z,23.73
2023-01-03T09:28:45.576Z,26.77
2023-01-03T09:31:12.431Z,21.65
2023-01-03T09:33:39.394Z,22.83
2023-01-03T09:36:07.197Z,25.95
2023-01-03T09:38:34.516Z,18.30
2023-01-03T09:41:09.199Z,17.05
2023-01-03T09:43:41.465Z,18.65
2023-01-03T09:46:21.948Z,20.80
2023-01-03T09:48:50.555Z,16.55
2023-01-03T09:51:45.001Z,22.38
2023-01-03T09:54:44.056Z,17.60
2023-01-03T09:57:46.633Z,21.92
2023-01-03T10:00:51.646Z,18.38
2023-01-03T10:03:51.401Z,20.30
2023-01-03T10:06:33.922Z,20.17
2023-01-03T10:09:15.631Z,26.08
2023-01-03T10:12:12.641Z,24.77
2023-01-03T10:14:54.727Z,18.02
2023-01-03T10:17:24.453Z,24.58
2023-01-03T10:20:18.729Z,18.77
2023-01-03T10:22:47.063Z,14.88
2023-01-03T10:25:21.920Z,15.77
2023-01-03T10:27:54.816Z,15.43
2023-01-03T10:31:00.739Z,10.43
2023-01-03T10:33:41.657Z,17.35
2023-01-03T10:36:09.771Z,11.80
2023-01-03T10:38:46.411Z,16.13
2023-01-03T10:41:31.820Z,10.70
2023-01-03T10:44:01.618Z,15.23
2023-01-03T10:46:30.184Z,12.30
2023-01-03T10:49:32.161Z,15.60
2023-01-03T10:52:17.096Z,16.67
2023-01-03T10:54:53.848Z,10.50
2023-01-03T10:57:48.955Z,12.20
2023-01-03T11:00:34.001Z,10.50
2023-01-03T11:03:14.766Z,10.80
2023-01-03T11:05:45.116Z,10.57
2023-01-03T11:08:23.739Z,12.73
2023-01-03T11:10:53.918Z,8.43
2023-01-03T11:13:34.960Z,10.10
2023-01-03T11:16:12.417Z,7.25
2023-01-03T11:18:39.234Z,11.13
2023-01-03T11:21:52.486Z,9.50
2023-01-03T11:24:22.060Z,9.70
2023-01-03T11:27:42.070Z,8.35
2023-01-03T11:30:45.696Z,10.23
2023-01-03T11:33:49.671Z,9.60
2023-01-03T11:36:48.792Z,11.05
2023-01-03T11:39:30.984Z,9.07
2023-01-03T11:42:09.656Z,10.00
2023-01-03T11:44:50.832Z,9.00
2023-01-03T11:47:51.070Z,7.80
2023-01-03T11:50:42.146Z,9.00
2023-01-03T11:53:26.964Z,11.27
2023-01-03T11:56:38.727Z,16.20
2023-01-03T11:59:32.870Z,12.27
2023-01-03T12:02:25.598Z,16.52
2023-01-03T12:05:16.823Z,16.60
2023-01-03T12:08:01.564Z,14.95
2023-01-03T12:11:15.234Z,16.90
2023-01-03T12:14:16.939Z,15.70
2023-01-03T12:17:04.944Z,13.40
2023-01-03T12:19:39.601Z,18.20
2023-01-03T12:22:35.344Z,17.23
2023-01-03T12:28:06.326Z,13.73
2023-01-03T12:31:19.847Z,14.68
2023-01-03T12:34:03.937Z,16.70
2023-01-03T12:36:58.916Z,20.38
2023-01-03T12:39:47.414Z,15.27
2023-01-03T12:42:41.285Z,13.10
2023-01-03T12:45:08.481Z,15.13
2023-01-03T12:48:31.790Z,13.18
2023-01-03T12:50:58.704Z,15.02
2023-01-03T12:53:47.566Z,10.38
2023-01-03T12:56:59.515Z,17.35
2023-01-03T13:00:24.052Z,12.23
2023-01-03T13:03:18.840Z,14.23
2023-01-03T13:05:58.506Z,12.68
2023-01-03T13:08:50.469Z,13.63
2023-01-03T13:11:33.310Z,14.55
2023-01-03T13:14:22.423Z,13.57
2023-01-03T13:16:54.289Z,17.05
2023-01-03T13:19:24.103Z,10.27
2023-01-03T13:21:53.855Z,12.32
2023-01-03T13:24:42.651Z,9.35
2023-01-03T13:27:21.482Z,13.70
2023-01-03T13:29:51.495Z,9.85
2023-01-03T13:32:21.416Z,13.10
2023-01-03T13:34:54.343Z,10.52
2023-01-03T13:37:26.046Z,15.43
2023-01-03T13:39:53.169Z,12.40
2023-01-03T13:42:33.258Z,6.60
2023-01-03T13:45:15.542Z,8.52
2023-01-03T13:47:47.636Z,10.23
2023-01-03T13:50:29.518Z,9.57
2023-01-03T13:52:57.429Z,10.23
2023-01-03T13:55:41.330Z,11.60
2023-01-03T13:58:27.433Z,11.43
2023-01-03T14:01:05.535Z,12.15
2023-01-03T14:03:56.138Z,12.45
2023-01-03T14:07:10.388Z,13.85
2023-01-03T14:10:14.809Z,11.15
2023-01-03T14:13:08.658Z,11.88
2023-01-03T14:15:35.976Z,15.13
2023-01-03T14:18:14.821Z,11.77
2023-01-03T14:20:48.617Z,13.68
2023-01-03T14:26:16.565Z,13.73
2023-01-03T14:28:49.860Z,11.70
2023-01-03T14:31:24.575Z,10.90
2023-01-03T14:34:01.514Z,11.63
2023-01-03T14:36:29.316Z,13.10
2023-01-03T14:39:01.354Z,13.60
2023-01-03T14:41:33.542Z,16.23
2023-01-03T14:44:16.128Z,15.38
2023-01-03T14:47:04.069Z,12.30
2023-01-03T14:49:47.282Z,13.77
2023-01-03T14:52:36.189Z,16.90
2023-01-03T14:55:08.849Z,15.43
2023-01-03T14:57:39.875Z,18.08
2023-01-03T15:00:32.136Z,12.05
2023-01-03T15:03:01.782Z,21.83
2023-01-03T15:05:40.914Z,17.55
2023-01-03T15:08:42.391Z,14.82
2023-01-03T15:11:10.318Z,15.90
2023-01-03T15:13:55.958Z,18.60
2023-01-03T15:16:42.617Z,17.17
2023-01-03T15:19:22.522Z,16.30
2023-01-03T15:21:49.619Z,12.45
2023-01-03T15:24:20.269Z,12.15
2023-01-03T15:26:53.426Z,14.90
2023-01-03T15:29:25.625Z,16.02
2023-01-03T15:31:55.704Z,17.10
2023-01-03T15:34:28.790Z,18.70
2023-01-03T15:37:03.141Z,17.45
2023-01-03T15:39:43.037Z,17.58
2023-01-03T15:42:46.703Z,18.08
2023-01-03T15:45:25.941Z,16.90
2023-01-03T15:47:58.478Z,17.23
2023-01-03T15:50:38.411Z,11.20
2023-01-03T15:53:05.387Z,13.80
2023-01-03T15:55:32.664Z,17.88
2023-01-03T15:57:59.601Z,15.25
2023-01-03T16:00:26.585Z,15.43
2023-01-03T16:02:53.797Z,12.70
2023-01-03T16:05:22.905Z,12.73
2023-01-03T16:07:51.366Z,13.65
2023-01-03T16:10:18.430Z,13.32
2023-01-03T16:12:45.636Z,15.88
2023-01-03T16:15:22.135Z,10.48
2023-01-03T16:17:51.202Z,12.10
2023-01-03T16:20:19.389Z,10.52
2023-01-03T16:23:00.577Z,13.35
2023-01-03T16:25:29.391Z,16.00
2023-01-03T16:27:56.435Z,15.65
2023-01-03T16:30:24.622Z,15.95
2023-01-03T16:32:52.038Z,12.95
2023-01-03T16:35:21.010Z,8.85
2023-01-03T16:37:47.922Z,11.98
2023-01-03T16:40:20.684Z,14.13
2023-01-03T16:42:48.268Z,15.40
2023-01-03T16:45:16.413Z,11.25
2023-01-03T16:47:44.073Z,11.82
2023-01-03T16:50:20.225Z,11.02
2023-01-03T16:52:53.292Z,9.85
2023-01-03T16:55:32.450Z,9.18
2023-01-03T16:57:59.702Z,10.98
2023-01-03T17:00:31.263Z,15.15
2023-01-03T17:03:02.935Z,9.77
2023-01-03T17:05:35.803Z,11.35
2023-01-03T17:08:07.976Z,7.95
2023-01-03T17:10:39.579Z,13.27
2023-01-03T17:13:38.893Z,12.15
2023-01-03T17:16:13.466Z,10.82
2023-01-03T17:18:42.560Z,11.38
2023-01-03T17:21:18.237Z,9.48
2023-01-03T17:23:45.851Z,6.10
2023-01-03T17:26:20.145Z,11.40
2023-01-03T17:28:48.631Z,8.07
2023-01-03T17:31:25.689Z,11.55
2023-01-03T17:33:53.756Z,10.63
2023-01-03T17:36:39.346Z,12.77
2023-01-03T17:39:06.599Z,9.68
2023-01-03T17:41:53.387Z,14.13
2023-01-03T17:44:20.286Z,9.80
2023-01-03T17:47:06.225Z,13.85
2023-01-03T17:49:33.073Z,10.07
2023-01-03T17:52:08.699Z,5.45
2023-01-03T17:54:40.816Z,6.70
2023-01-03T17:57:13.882Z,6.95
2023-01-03T17:59:40.720Z,7.15
2023-01-03T18:02:21.293Z,4.40
2023-01-03T18:05:15.987Z,5.53
2023-01-03T18:07:36.648Z,7.60
2023-01-03T18:10:04.034Z,6.82
2023-01-03T18:12:31.820Z,5.78
2023-01-03T18:14:58.769Z,5.97
2023-01-03T18:17:31.992Z,7.00
2023-01-03T18:19:59.804Z,4.90
2023-01-03T18:22:27.375Z,4.80
2023-01-03T18:24:55.696Z,4.03
2023-01-03T18:27:26.376Z,6.47
2023-01-03T18:29:53.501Z,5.43
2023-01-03T18:32:34.355Z,6.90
2023-01-03T18:35:01.651Z,3.50
2023-01-03T18:37:35.526Z,6.25
2023-01-03T18:40:08.304Z,4.38
2023-01-03T18:42:54.646Z,5.03
2023-01-03T18:45:21.611Z,3.55
2023-01-03T18:47:48.429Z,5.32
2023-01-03T18:50:20.228Z,5.22
2023-01-03T18:52:48.961Z,3.55
2023-01-03T18:55:21.513Z,4.78
2023-01-03T18:57:49.452Z,3.72
2023-01-03T19:00:17.897Z,4.82
2023-01-03T19:02:44.963Z,2.95
2023-01-03T19:05:12.211Z,3.17
2023-01-03T19:07:39.664Z,2.75
2023-01-03T19:10:18.295Z,3.90
2023-01-03T19:12:45.167Z,4.15
2023-01-03T19:15:25.919Z,4.40
2023-01-03T19:17:52.887Z,4.30
2023-01-03T19:20:26.367Z,6.00
2023-01-03T19:22:54.801Z,3.30
2023-01-03T19:25:30.470Z,3.90
2023-01-03T19:28:01.550Z,5.45
2023-01-03T19:30:40.714Z,2.70
2023-01-03T19:33:14.443Z,6.15
2023-01-03T19:35:43.092Z,3.55
2023-01-03T19:38:09.980Z,3.83
2023-01-03T19:40:39.726Z,3.92
2023-01-03T19:43:06.735Z,2.95
2023-01-03T19:45:36.068Z,3.45
2023-01-03T19:48:15.745Z,3.42
2023-01-03T19:50:42.794Z,3.30
2023-01-03T19:53:09.639Z,3.63
2023-01-03T19:55:42.109Z,4.28
2023-01-03T19:58:24.902Z,2.28
2023-01-03T20:00:52.681Z,4.10
2023-01-03T20:03:40.210Z,10.95
2023-01-03T20:06:12.942Z,11.95
2023-01-03T20:08:40.305Z,5.95
2023-01-03T20:11:17.810Z,5.57
2023-01-03T20:13:46.077Z,3.42
2023-01-03T20:16:14.328Z,10.05
2023-01-03T20:18:43.398Z,4.28
2023-01-03T20:21:10.170Z,2.55
2023-01-03T20:23:41.132Z,2.83
2023-01-03T20:26:21.647Z,2.22
2023-01-03T20:28:49.135Z,3.28
2023-01-03T20:31:20.349Z,3.03
2023-01-03T20:33:48.130Z,2.85
2023-01-03T20:36:23.762Z,3.20
2023-01-03T20:38:53.898Z,2.40
2023-01-03T20:41:21.461Z,2.80
2023-01-03T20:43:50.398Z,2.53
2023-01-03T20:46:20.836Z,2.28
2023-01-03T20:48:58.083Z,1.65
2023-01-03T20:51:25.457Z,2.30
2023-01-03T20:53:54.981Z,2.10
2023-01-03T20:56:23.124Z,2.78
2023-01-03T20:58:50.187Z,1.90
2023-01-03T21:01:17.278Z,3.75
2023-01-03T21:03:44.868Z,2.65
2023-01-03T21:06:22.057Z,2.03
2023-01-03T21:08:56.786Z,2.50
2023-01-03T21:11:33.292Z,3.10
2023-01-03T21:14:01.650Z,2.30
2023-01-03T21:16:28.515Z,1.55
2023-01-03T21:18:56.542Z,2.08
2023-01-03T21:21:24.257Z,1.10
2023-01-03T21:23:51.381Z,1.77
2023-01-03T21:26:19.183Z,0.93
2023-01-03T21:28:46.109Z,2.00
2023-01-03T21:31:22.910Z,2.70
2023-01-03T21:33:50.256Z,2.15
2023-01-03T21:36:43.671Z,0.95
2023-01-03T21:39:11.387Z,2.58
2023-01-03T21:41:58.731Z,1.23
2023-01-03T21:44:25.718Z,0.52
2023-01-03T21:46:53.074Z,1.80
2023-01-03T21:49:20.340Z,0.80
2023-01-03T21:51:47.130Z,1.05
2023-01-03T21:54:13.952Z,1.48
2023-01-03T21:56:47.333Z,1.27
2023-01-03T21:59:17.893Z,2.25
2023-01-03T22:02:04.323Z,2.17
2023-01-03T22:04:32.819Z,3.35
2023-01-03T22:07:02.556Z,1.85
2023-01-03T22:09:49.988Z,1.52
2023-01-03T22:12:18.339Z,3.47
2023-01-03T22:14:46.173Z,1.50
2023-01-03T22:17:14.024Z,1.85
2023-01-03T22:19:40.992Z,3.25
2023-01-03T22:22:07.893Z,2.28
2023-01-03T22:24:34.703Z,2.30
2023-01-03T22:27:01.505Z,1.38
2023-01-03T22:29:28.321Z,4.43
2023-01-03T22:31:55.218Z,2.67
2023-01-03T22:34:22.136Z,2.58
2023-01-03T22:36:49.265Z,2.35
2023-01-03T22:39:16.063Z,3.25
2023-01-03T22:41:42.915Z,4.10
2023-01-03T22:44:11.085Z,4.53
2023-01-03T22:46:38.737Z,4.85
2023-01-03T22:49:05.553Z,3.20
2023-01-03T22:51:32.527Z,3.10
2023-01-03T22:53:59.704Z,4.28
2023-01-03T22:56:26.496Z,3.95
2023-01-03T22:58:53.332Z,7.25
2023-01-03T23:01:28.341Z,2.75
2023-01-03T23:04:00.424Z,5.88
2023-01-03T23:06:29.467Z,4.25
2023-01-03T23:08:57.272Z,4.25
2023-01-03T23:11:47.114Z,4.07
2023-01-03T23:14:17.297Z,2.20
2023-01-03T23:16:44.993Z,2.80
2023-01-03T23:19:15.548Z,4.43
2023-01-03T23:21:42.896Z,3.00
2023-01-03T23:24:22.601Z,4.93
2023-01-03T23:26:51.517Z,4.68
2023-01-03T23:29:18.667Z,7.03
2023-01-03T23:31:45.561Z,5.20
2023-01-03T23:34:13.268Z,3.05
2023-01-03T23:36:43.094Z,4.43
2023-01-03T23:39:16.214Z,3.78
2023-01-03T23:41:43.524Z,3.65
2023-01-03T23:44:10.870Z,4.28
2023-01-03T23:46:38.121Z,2.67
2023-01-03T23:49:05.306Z,4.03
2023-01-03T23:51:32.141Z,3.50
2023-01-03T23:53:59.733Z,3.30
2023-01-03T23:56:26.563Z,2.75
2023-01-03T23:58:53.669Z,3.92
